createdAt,value
2023-05-15T00:00:51.705Z,99168.56
2023-05-15T00:03:19.671Z,99170.59
2023-05-15T00:05:48.403Z,99172.91
2023-05-15T00:08:15.778Z,99160.03
2023-05-15T00:10:57.545Z,99166.97
2023-05-15T00:13:27.799Z,99168.59
2023-05-15T00:15:55.908Z,99181.62
2023-05-15T00:18:23.922Z,99188.78
2023-05-15T00:20:53.003Z,99188.34
2023-05-15T00:23:21.058Z,99187.25
2023-05-15T00:25:48.735Z,99202.28
2023-05-15T00:28:16.119Z,99198.22
2023-05-15T00:30:44.334Z,99202.06
2023-05-15T00:33:12.591Z,99203.28
2023-05-15T00:35:39.960Z,99185.22
2023-05-15T00:38:08.201Z,99184.91
2023-05-15T00:40:37.978Z,99187.81
2023-05-15T00:43:05.854Z,99176.06
2023-05-15T00:45:34.284Z,99181.62
2023-05-15T00:48:01.943Z,99172.16
2023-05-15T00:50:29.525Z,99172.66
2023-05-15T00:52:58.552Z,99170.00
2023-05-15T00:55:34.660Z,99169.50
2023-05-15T00:58:03.972Z,99167.09
2023-05-15T01:00:33.116Z,99162.87
2023-05-15T01:03:01.976Z,99158.03
2023-05-15T01:05:29.890Z,99154.87
2023-05-15T01:08:17.957Z,99149.66
2023-05-15T01:10:46.216Z,99142.50
2023-05-15T01:13:14.313Z,99133.97
2023-05-15T01:15:42.489Z,99129.47
2023-05-15T01:18:12.246Z,99130.25
2023-05-15T01:20:58.635Z,99131.66
2023-05-15T01:23:26.401Z,99129.03
2023-05-15T01:26:12.176Z,99122.63
2023-05-15T01:28:43.626Z,99118.47
2023-05-15T01:31:15.874Z,99123.00
2023-05-15T01:33:44.518Z,99126.09
2023-05-15T01:36:24.536Z,99135.16
2023-05-15T01:38:53.546Z,99120.19
2023-05-15T01:41:21.519Z,99108.72
2023-05-15T01:43:55.758Z,99107.56
2023-05-15T01:46:23.988Z,99118.84
2023-05-15T01:48:51.703Z,99117.78
2023-05-15T01:51:19.155Z,99118.13
2023-05-15T01:53:47.207Z,99118.03
2023-05-15T01:56:16.951Z,99105.91
2023-05-15T01:58:46.270Z,99105.69
2023-05-15T02:01:14.919Z,99112.72
2023-05-15T02:03:42.768Z,99126.16
2023-05-15T02:06:10.029Z,99125.91
2023-05-15T02:08:38.263Z,99126.28
2023-05-15T02:11:05.875Z,99132.81
2023-05-15T02:13:34.358Z,99137.69
2023-05-15T02:16:01.784Z,99145.91
2023-05-15T02:18:30.119Z,99159.97
2023-05-15T02:21:04.619Z,99167.47
2023-05-15T02:23:33.970Z,99175.66
2023-05-15T02:26:05.417Z,99165.91
2023-05-15T02:28:52.769Z,99168.91
2023-05-15T02:31:26.908Z,99177.16
2023-05-15T02:34:09.294Z,99169.41
2023-05-15T02:36:37.370Z,99169.44
2023-05-15T02:39:04.976Z,99163.00
2023-05-15T02:41:32.416Z,99162.84
2023-05-15T02:44:00.337Z,99159.38
2023-05-15T02:46:28.901Z,99147.37
2023-05-15T02:48:57.424Z,99143.12
2023-05-15T02:51:25.073Z,99148.47
2023-05-15T02:53:54.018Z,99144.84
2023-05-15T02:56:22.438Z,99145.44
2023-05-15T02:58:50.309Z,99134.19
2023-05-15T03:01:19.686Z,99136.34
2023-05-15T03:03:48.338Z,99131.75
2023-05-15T03:06:17.172Z,99130.56
2023-05-15T03:08:49.676Z,99131.13
2023-05-15T03:11:19.331Z,99131.41
2023-05-15T03:13:47.166Z,99127.62
2023-05-15T03:16:14.938Z,99112.31
2023-05-15T03:18:44.176Z,99090.69
2023-05-15T03:21:14.494Z,99090.41
2023-05-15T03:23:42.527Z,99077.13
2023-05-15T03:26:11.992Z,99091.16
2023-05-15T03:28:42.287Z,99090.56
2023-05-15T03:31:10.808Z,99084.88
2023-05-15T03:33:38.348Z,99073.25
2023-05-15T03:36:06.458Z,99075.53
2023-05-15T03:38:36.432Z,99079.31
2023-05-15T03:41:14.932Z,99079.66
2023-05-15T03:43:42.701Z,99077.56
2023-05-15T03:46:10.278Z,99081.47
2023-05-15T03:48:40.839Z,99082.19
2023-05-15T03:51:09.257Z,99074.94
2023-05-15T03:53:36.732Z,99081.16
2023-05-15T03:56:08.519Z,99075.62
2023-05-15T03:58:39.149Z,99084.38
2023-05-15T04:01:08.196Z,99071.47
2023-05-15T04:03:36.337Z,99054.34
2023-05-15T04:06:05.506Z,99053.97
2023-05-15T04:08:33.426Z,99054.19
2023-05-15T04:11:03.442Z,99042.50
2023-05-15T04:13:31.741Z,99040.59
2023-05-15T04:16:00.289Z,99041.59
2023-05-15T04:18:29.362Z,99041.63
2023-05-15T04:20:58.387Z,99048.87
2023-05-15T04:23:26.083Z,99047.53
2023-05-15T04:25:55.570Z,99046.53
2023-05-15T04:28:24.549Z,99041.44
2023-05-15T04:30:52.087Z,99051.41
2023-05-15T04:33:21.539Z,99068.47
2023-05-15T04:35:49.762Z,99078.56
2023-05-15T04:38:17.870Z,99080.13
2023-05-15T04:43:26.808Z,99089.91
2023-05-15T04:45:59.447Z,99084.38
2023-05-15T04:48:33.597Z,99089.91
2023-05-15T04:51:02.834Z,99091.88
2023-05-15T04:53:31.042Z,99100.09
2023-05-15T04:55:59.888Z,99115.59
2023-05-15T04:58:27.922Z,99116.53
2023-05-15T05:01:04.117Z,99128.88
2023-05-15T05:03:34.942Z,99122.13
2023-05-15T05:06:10.251Z,99119.94
2023-05-15T05:08:39.010Z,99121.50
2023-05-15T05:11:11.410Z,99112.41
2023-05-15T05:13:40.431Z,99121.59
2023-05-15T05:16:07.942Z,99121.72
2023-05-15T05:18:38.666Z,99129.31
2023-05-15T05:21:08.764Z,99128.47
2023-05-15T05:23:37.254Z,99141.06
2023-05-15T05:26:06.917Z,99135.31
2023-05-15T05:28:35.635Z,99135.31
2023-05-15T05:31:06.192Z,99136.28
2023-05-15T05:33:35.613Z,99126.94
2023-05-15T05:36:05.641Z,99110.03
2023-05-15T05:38:34.610Z,99109.78
2023-05-15T05:43:43.411Z,99102.47
2023-05-15T05:46:10.813Z,99109.31
2023-05-15T05:48:40.448Z,99119.44
2023-05-15T05:51:08.452Z,99118.41
2023-05-15T05:53:39.509Z,99130.28
2023-05-15T05:58:45.532Z,99132.06
2023-05-15T06:01:21.455Z,99137.22
2023-05-15T06:04:23.448Z,99125.44
2023-05-15T06:07:11.473Z,99129.38
2023-05-15T06:10:04.046Z,99122.75
2023-05-15T06:12:35.450Z,99138.13
2023-05-15T06:15:04.164Z,99140.00
2023-05-15T06:17:38.593Z,99140.66
2023-05-15T06:20:08.631Z,99137.56
2023-05-15T06:22:46.162Z,99132.16
2023-05-15T06:25:26.958Z,99143.41
2023-05-15T06:27:56.343Z,99152.78
2023-05-15T06:30:24.404Z,99157.28
2023-05-15T06:32:56.131Z,99149.72
2023-05-15T06:35:27.147Z,99158.22
2023-05-15T06:38:04.897Z,99154.34
2023-05-15T06:40:33.322Z,99144.19
2023-05-15T06:43:09.021Z,99137.63
2023-05-15T06:45:38.076Z,99131.19
2023-05-15T06:48:07.988Z,99133.91
2023-05-15T06:50:36.184Z,99122.63
2023-05-15T06:53:04.476Z,99127.69
2023-05-15T06:55:35.369Z,99125.53
2023-05-15T06:58:05.972Z,99118.88
2023-05-15T07:00:34.558Z,99113.78
2023-05-15T07:03:04.141Z,99120.25
2023-05-15T07:05:40.719Z,99145.25
2023-05-15T07:08:18.743Z,99133.22
2023-05-15T07:10:52.587Z,99134.38
2023-05-15T07:13:24.679Z,99142.47
2023-05-15T07:15:54.585Z,99147.91
2023-05-15T07:18:23.497Z,99148.50
2023-05-15T07:20:53.781Z,99157.84
2023-05-15T07:23:22.048Z,99158.41
2023-05-15T07:26:00.447Z,99161.66
2023-05-15T07:28:36.596Z,99170.03
2023-05-15T07:31:04.984Z,99179.78
2023-05-15T07:33:35.229Z,99173.19
2023-05-15T07:36:02.839Z,99165.03
2023-05-15T07:38:31.067Z,99148.44
2023-05-15T07:40:59.621Z,99146.34
2023-05-15T07:43:27.977Z,99148.41
2023-05-15T07:45:59.072Z,99143.16
2023-05-15T07:48:27.561Z,99142.09
2023-05-15T07:53:33.374Z,99139.34
2023-05-15T07:56:00.853Z,99133.22
2023-05-15T07:58:37.294Z,99140.31
2023-05-15T08:03:46.709Z,99167.34
2023-05-15T08:06:23.567Z,99181.34
2023-05-15T08:08:53.491Z,99171.50
2023-05-15T08:11:23.528Z,99157.97
2023-05-15T08:13:52.351Z,99171.31
2023-05-15T08:16:20.003Z,99175.00
2023-05-15T08:18:48.031Z,99174.19
2023-05-15T08:21:16.872Z,99171.97
2023-05-15T08:23:47.934Z,99171.72
2023-05-15T08:26:20.137Z,99169.87
2023-05-15T08:28:51.199Z,99182.69
2023-05-15T08:31:26.443Z,99178.72
2023-05-15T08:33:54.803Z,99179.06
2023-05-15T08:36:24.083Z,99167.44
2023-05-15T08:38:54.692Z,99165.41
2023-05-15T08:41:39.866Z,99162.87
2023-05-15T08:44:11.481Z,99155.47
2023-05-15T08:46:44.574Z,99156.22
2023-05-15T08:49:26.661Z,99148.66
2023-05-15T08:51:56.828Z,99154.97
2023-05-15T08:54:48.532Z,99160.00
2023-05-15T08:57:37.462Z,99149.38
2023-05-15T09:00:27.841Z,99142.78
2023-05-15T09:03:07.584Z,99135.97
2023-05-15T09:05:43.937Z,99143.81
2023-05-15T09:08:11.898Z,99147.50
2023-05-15T09:10:49.918Z,99162.81
2023-05-15T09:13:22.650Z,99170.63
2023-05-15T09:15:50.884Z,99174.69
2023-05-15T09:18:19.605Z,99177.78
2023-05-15T09:20:49.696Z,99178.06
2023-05-15T09:23:38.640Z,99176.28
2023-05-15T09:26:13.852Z,99182.00
2023-05-15T09:28:46.682Z,99187.03
2023-05-15T09:31:19.733Z,99187.63
2023-05-15T09:33:59.305Z,99194.03
2023-05-15T09:36:28.121Z,99207.03
2023-05-15T09:38:59.350Z,99208.06
2023-05-15T09:41:35.507Z,99207.47
2023-05-15T09:44:24.798Z,99209.19
2023-05-15T09:46:55.520Z,99206.59
2023-05-15T09:50:10.484Z,99203.31
2023-05-15T09:52:42.923Z,99207.13
2023-05-15T09:55:16.680Z,99204.38
2023-05-15T09:57:46.067Z,99210.03
2023-05-15T10:00:18.159Z,99203.78
2023-05-15T10:02:46.314Z,99206.03
2023-05-15T10:05:25.975Z,99200.00
2023-05-15T10:08:03.703Z,99209.37
2023-05-15T10:14:38.466Z,99206.63
2023-05-15T10:17:07.624Z,99212.44
2023-05-15T10:19:37.580Z,99209.91
2023-05-15T10:22:12.359Z,99212.59
2023-05-15T10:24:40.311Z,99204.56
2023-05-15T10:27:08.596Z,99207.81
2023-05-15T10:29:38.835Z,99216.81
2023-05-15T10:32:07.286Z,99206.16
2023-05-15T10:34:39.179Z,99204.34
2023-05-15T10:37:07.538Z,99217.38
2023-05-15T10:39:38.444Z,99215.13
2023-05-15T10:42:14.579Z,99212.22
2023-05-15T10:45:06.208Z,99218.25
2023-05-15T10:47:52.874Z,99214.28
2023-05-15T10:50:24.143Z,99209.66
2023-05-15T10:52:54.741Z,99208.03
2023-05-15T10:55:26.109Z,99201.91
2023-05-15T10:57:55.061Z,99198.75
2023-05-15T11:00:23.718Z,99212.75
2023-05-15T11:03:00.537Z,99202.91
2023-05-15T11:05:35.949Z,99204.91
2023-05-15T11:08:26.473Z,99201.81
2023-05-15T11:10:55.490Z,99212.97
2023-05-15T11:13:28.072Z,99200.00
2023-05-15T11:15:57.488Z,99199.91
2023-05-15T11:18:25.892Z,99192.28
2023-05-15T11:20:53.568Z,99193.06
2023-05-15T11:23:24.548Z,99188.81
2023-05-15T11:25:58.151Z,99188.41
2023-05-15T11:28:31.776Z,99190.41
2023-05-15T11:31:00.159Z,99192.00
2023-05-15T11:33:33.857Z,99194.06
2023-05-15T11:36:04.913Z,99200.28
2023-05-15T11:38:38.161Z,99192.19
2023-05-15T11:41:25.491Z,99190.16
2023-05-15T11:43:53.351Z,99196.84
2023-05-15T11:46:22.259Z,99193.75
2023-05-15T11:48:50.676Z,99181.12
2023-05-15T11:51:25.213Z,99178.91
2023-05-15T11:53:56.513Z,99178.37
2023-05-15T11:56:28.585Z,99178.22
2023-05-15T12:01:48.694Z,99181.66
2023-05-15T12:04:18.279Z,99185.94
2023-05-15T12:06:53.288Z,99182.84
2023-05-15T12:09:27.640Z,99181.25
2023-05-15T12:11:56.250Z,99186.63
2023-05-15T12:14:35.497Z,99184.28
2023-05-15T12:17:06.515Z,99194.84
2023-05-15T12:19:35.905Z,99182.50
2023-05-15T12:27:20.654Z,99186.00
2023-05-15T12:29:48.779Z,99190.53
2023-05-15T12:35:00.013Z,99201.69
2023-05-15T12:37:31.788Z,99199.06
2023-05-15T12:40:12.852Z,99205.72
2023-05-15T12:45:20.564Z,99185.31
2023-05-15T12:47:50.120Z,99190.16
2023-05-15T12:50:21.059Z,99199.97
2023-05-15T12:52:56.770Z,99187.34
2023-05-15T12:55:26.120Z,99176.09
2023-05-15T12:58:10.622Z,99172.50
2023-05-15T13:00:43.640Z,99176.91
2023-05-15T13:03:28.809Z,99164.34
2023-05-15T13:06:45.608Z,99160.09
2023-05-15T13:09:28.512Z,99160.81
2023-05-15T13:12:24.613Z,99161.31
2023-05-15T13:15:30.429Z,99170.25
2023-05-15T13:18:19.361Z,99170.84
2023-05-15T13:21:01.828Z,99165.47
2023-05-15T13:24:06.514Z,99155.22
2023-05-15T13:26:50.622Z,99144.31
2023-05-15T13:29:34.025Z,99148.75
2023-05-15T13:32:23.587Z,99152.50
2023-05-15T13:34:54.946Z,99150.00
2023-05-15T13:37:29.370Z,99152.00
2023-05-15T13:39:59.309Z,99152.16
2023-05-15T13:42:32.949Z,99145.03
2023-05-15T13:45:13.540Z,99146.69
2023-05-15T13:47:44.151Z,99143.12
2023-05-15T13:50:17.720Z,99142.06
2023-05-15T13:52:47.115Z,99137.63
2023-05-15T13:55:23.280Z,99126.16
2023-05-15T13:58:20.848Z,99142.13
2023-05-15T14:00:49.926Z,99140.37
2023-05-15T14:03:28.686Z,99149.22
2023-05-15T14:06:05.107Z,99147.56
2023-05-15T14:11:14.670Z,99160.81
2023-05-15T14:13:55.458Z,99158.62
2023-05-15T14:16:24.015Z,99154.03
2023-05-15T14:18:53.577Z,99143.84
2023-05-15T14:21:29.575Z,99149.22
2023-05-15T14:24:04.989Z,99149.97
2023-05-15T14:26:33.849Z,99145.19
2023-05-15T14:29:02.543Z,99144.69
2023-05-15T14:31:32.507Z,99157.47
2023-05-15T14:34:02.549Z,99173.84
2023-05-15T14:36:37.910Z,99173.41
2023-05-15T14:39:20.805Z,99175.25
2023-05-15T14:42:12.318Z,99167.06
2023-05-15T14:47:46.805Z,99180.59
2023-05-15T14:50:34.647Z,99177.53
2023-05-15T14:53:18.492Z,99183.31
2023-05-15T14:56:02.490Z,99171.22
2023-05-15T14:58:45.508Z,99174.84
2023-05-15T15:04:20.506Z,99174.56
2023-05-15T15:07:03.647Z,99178.47
2023-05-15T15:10:00.308Z,99177.16
2023-05-15T15:12:43.355Z,99185.31
2023-05-15T15:15:28.604Z,99188.22
2023-05-15T15:18:17.539Z,99187.94
2023-05-15T15:21:00.626Z,99193.56
2023-05-15T15:23:50.421Z,99198.09
2023-05-15T15:26:38.736Z,99201.91
2023-05-15T15:29:35.976Z,99201.37
2023-05-15T15:32:33.611Z,99203.06
2023-05-15T15:35:13.049Z,99207.44
2023-05-15T15:37:43.151Z,99214.22
2023-05-15T15:42:48.667Z,99209.81
2023-05-15T15:48:30.545Z,99216.37
2023-05-15T15:51:22.782Z,99219.28
2023-05-15T15:56:43.551Z,99220.25
2023-05-15T15:59:15.709Z,99216.44
2023-05-15T16:04:30.809Z,99221.22
2023-05-15T16:07:22.488Z,99213.44
2023-05-15T16:12:41.064Z,99214.00
2023-05-15T16:17:43.993Z,99214.44
2023-05-15T16:20:36.673Z,99215.75
2023-05-15T16:23:09.675Z,99220.12
2023-05-15T16:25:47.162Z,99227.59
2023-05-15T16:28:39.535Z,99226.69
2023-05-15T16:31:11.801Z,99233.47
2023-05-15T16:33:57.139Z,99230.00
2023-05-15T16:36:34.574Z,99236.84
2023-05-15T16:44:17.899Z,99251.19
2023-05-15T16:47:04.828Z,99257.84
2023-05-15T16:49:54.581Z,99249.28
2023-05-15T16:52:48.562Z,99250.25
2023-05-15T16:55:33.793Z,99240.75
2023-05-15T16:58:40.737Z,99241.06
2023-05-15T17:01:50.674Z,99241.38
2023-05-15T17:04:40.419Z,99241.97
2023-05-15T17:07:52.226Z,99249.47
2023-05-15T17:10:42.554Z,99255.69
2023-05-15T17:16:22.940Z,99266.41
2023-05-15T17:19:17.731Z,99278.91
2023-05-15T17:21:51.183Z,99271.63
2023-05-15T17:24:49.980Z,99276.84
2023-05-15T17:27:25.971Z,99283.31
2023-05-15T17:30:10.907Z,99289.19
2023-05-15T17:35:43.505Z,99281.94
2023-05-15T17:38:35.713Z,99289.53
2023-05-15T17:41:22.768Z,99290.25
2023-05-15T17:44:12.045Z,99292.63
2023-05-15T17:46:55.743Z,99293.47
2023-05-15T17:49:53.936Z,99292.94
2023-05-15T17:55:31.806Z,99293.22
2023-05-15T17:58:19.591Z,99294.09
2023-05-15T18:01:12.882Z,99286.16
2023-05-15T18:04:03.496Z,99278.13
2023-05-15T18:06:39.734Z,99280.97
2023-05-15T18:11:54.558Z,99279.47
2023-05-15T18:14:23.245Z,99283.94
2023-05-15T18:16:55.672Z,99293.28
2023-05-15T18:19:29.476Z,99296.41
2023-05-15T18:24:46.077Z,99295.16
2023-05-15T18:29:56.660Z,99302.88
2023-05-15T18:32:35.068Z,99312.75
2023-05-15T18:35:09.569Z,99318.13
2023-05-15T18:37:42.592Z,99317.53
2023-05-15T18:40:11.812Z,99330.78
2023-05-15T18:42:47.848Z,99330.50
2023-05-15T18:45:29.559Z,99336.69
2023-05-15T18:48:06.529Z,99345.03
2023-05-15T18:50:41.620Z,99346.37
2023-05-15T18:53:16.644Z,99350.41
2023-05-15T18:55:54.504Z,99351.72
2023-05-15T18:58:32.681Z,99354.53
2023-05-15T19:01:17.350Z,99354.31
2023-05-15T19:04:16.689Z,99356.28
2023-05-15T19:06:55.639Z,99356.81
2023-05-15T19:09:45.578Z,99355.63
2023-05-15T19:12:16.040Z,99352.34
2023-05-15T19:15:08.671Z,99355.28
2023-05-15T19:17:42.604Z,99361.28
2023-05-15T19:20:23.821Z,99355.88
2023-05-15T19:23:12.990Z,99364.34
2023-05-15T19:26:13.485Z,99359.94
2023-05-15T19:28:52.960Z,99373.66
2023-05-15T19:33:59.572Z,99379.22
2023-05-15T19:37:00.102Z,99376.59
2023-05-15T19:43:24.780Z,99369.84
2023-05-15T19:46:07.290Z,99367.94
2023-05-15T19:49:04.857Z,99360.28
2023-05-15T19:54:18.811Z,99364.81
2023-05-15T19:57:12.865Z,99373.69
2023-05-15T19:59:49.534Z,99367.22
2023-05-15T20:03:01.578Z,99362.78
2023-05-15T20:05:34.566Z,99366.38
2023-05-15T20:08:11.281Z,99371.59
2023-05-15T20:10:54.564Z,99372.84
2023-05-15T20:13:51.594Z,99376.16
2023-05-15T20:16:26.907Z,99377.91
2023-05-15T20:18:58.637Z,99379.19
2023-05-15T20:21:29.973Z,99383.47
2023-05-15T20:24:25.586Z,99383.78
2023-05-15T20:26:57.974Z,99391.50
2023-05-15T20:29:47.697Z,99394.47
2023-05-15T20:32:36.353Z,99397.03
2023-05-15T20:35:28.712Z,99401.19
2023-05-15T20:38:10.702Z,99405.44
2023-05-15T20:40:45.972Z,99399.31
2023-05-15T20:43:14.772Z,99404.78
2023-05-15T20:45:46.153Z,99412.09
2023-05-15T20:48:17.892Z,99412.09
2023-05-15T20:51:08.449Z,99399.44
2023-05-15T20:54:01.501Z,99395.06
2023-05-15T20:56:49.779Z,99402.50
2023-05-15T20:59:22.035Z,99391.72
2023-05-15T21:01:51.164Z,99390.28
2023-05-15T21:04:22.809Z,99398.28
2023-05-15T21:07:20.100Z,99409.72
2023-05-15T21:09:47.847Z,99403.78
2023-05-15T21:12:17.404Z,99398.94
2023-05-15T21:14:45.261Z,99408.97
2023-05-15T21:17:13.294Z,99408.03
2023-05-15T21:19:42.816Z,99399.87
2023-05-15T21:22:11.403Z,99395.62
2023-05-15T21:24:38.873Z,99406.81
2023-05-15T21:27:07.948Z,99410.25
2023-05-15T21:29:35.189Z,99409.81
2023-05-15T21:32:06.616Z,99401.63
2023-05-15T21:34:36.676Z,99406.37
2023-05-15T21:37:04.269Z,99405.31
2023-05-15T21:39:34.666Z,99410.03
2023-05-15T21:42:02.900Z,99407.84
2023-05-15T21:44:31.080Z,99401.06
2023-05-15T21:46:58.970Z,99412.25
2023-05-15T21:49:26.314Z,99410.66
2023-05-15T21:51:53.708Z,99411.75
2023-05-15T21:54:21.856Z,99416.84
2023-05-15T21:56:49.092Z,99428.63
2023-05-15T21:59:16.862Z,99430.44
2023-05-15T22:01:46.452Z,99434.09
2023-05-15T22:04:14.915Z,99440.88
2023-05-15T22:06:43.791Z,99443.44
2023-05-15T22:09:12.100Z,99445.22
2023-05-15T22:11:40.417Z,99434.25
2023-05-15T22:14:10.034Z,99440.88
2023-05-15T22:16:37.951Z,99445.97
2023-05-15T22:19:05.981Z,99455.94
2023-05-15T22:21:34.721Z,99459.31
2023-05-15T22:24:06.142Z,99456.56
2023-05-15T22:26:33.486Z,99456.06
2023-05-15T22:29:01.593Z,99462.97
2023-05-15T22:31:29.702Z,99469.28
2023-05-15T22:33:57.276Z,99460.22
2023-05-15T22:36:24.703Z,99457.78
2023-05-15T22:38:52.424Z,99448.53
2023-05-15T22:41:19.909Z,99452.28
2023-05-15T22:43:48.465Z,99450.84
2023-05-15T22:46:16.380Z,99443.19
2023-05-15T22:48:43.804Z,99444.63
2023-05-15T22:51:11.450Z,99440.00
2023-05-15T22:53:39.645Z,99446.22
2023-05-15T22:56:07.140Z,99442.84
2023-05-15T22:58:36.902Z,99438.25
2023-05-15T23:01:04.688Z,99433.25
2023-05-15T23:03:32.616Z,99425.62
2023-05-15T23:05:59.899Z,99419.56
2023-05-15T23:08:27.794Z,99423.91
2023-05-15T23:10:56.321Z,99423.44
2023-05-15T23:13:24.489Z,99421.84
2023-05-15T23:15:52.173Z,99422.44
2023-05-15T23:18:20.287Z,99417.59
2023-05-15T23:20:47.918Z,99426.09
2023-05-15T23:23:15.964Z,99421.34
2023-05-15T23:25:43.927Z,99425.38
2023-05-15T23:28:11.371Z,99419.06
2023-05-15T23:30:39.095Z,99416.63
2023-05-15T23:33:06.414Z,99420.63
2023-05-15T23:35:33.904Z,99409.09
2023-05-15T23:38:02.060Z,99403.47
2023-05-15T23:40:29.692Z,99398.63
2023-05-15T23:42:57.000Z,99400.59
2023-05-15T23:45:24.507Z,99409.22
2023-05-15T23:47:52.344Z,99401.34
2023-05-15T23:50:21.223Z,99396.47
2023-05-15T23:53:13.477Z,99400.84
2023-05-15T23:55:55.530Z,99398.66
2023-05-15T23:58:41.853Z,99408.38
